createdAt,value
2019-05-03T00:03:16.660Z,1999.90
2019-05-03T00:08:21.729Z,1223.30
2019-05-03T00:13:26.115Z,1999.90
2019-05-03T00:18:30.169Z,1999.90
2019-05-03T00:23:33.933Z,1852.17
2019-05-03T00:28:40.001Z,1999.90
2019-05-03T00:33:45.918Z,1999.90
2019-05-03T00:38:52.450Z,1999.90
2019-05-03T00:43:56.294Z,1999.90
2019-05-03T00:49:00.018Z,1999.90
2019-05-03T00:54:03.795Z,1999.90
2019-05-03T00:59:07.830Z,1999.90
2019-05-03T01:04:11.906Z,1999.90
2019-05-03T01:09:19.753Z,1999.90
2019-05-03T01:14:23.509Z,1999.90
2019-05-03T01:19:27.673Z,1999.90
2019-05-03T01:24:32.308Z,1999.90
2019-05-03T01:29:36.610Z,1999.90
2019-05-03T01:34:41.652Z,1964.23
2019-05-03T01:39:45.566Z,1999.90
2019-05-03T01:44:49.298Z,1999.90
2019-05-03T01:50:00.086Z,1999.90
2019-05-03T01:55:04.260Z,1999.90
2019-05-03T02:00:12.497Z,1666.07
2019-05-03T02:05:42.887Z,1999.90
2019-05-03T02:10:46.904Z,1999.90
2019-05-03T02:15:52.696Z,1677.10
2019-05-03T02:20:56.461Z,1999.90
2019-05-03T02:26:00.138Z,1999.90
2019-05-03T02:31:03.946Z,1031.90
2019-05-03T02:36:07.708Z,1930.83
2019-05-03T02:41:13.493Z,1267.93
2019-05-03T02:46:36.321Z,1029.07
2019-05-03T02:51:41.138Z,1999.90
2019-05-03T02:56:46.014Z,1478.97
2019-05-03T03:01:50.389Z,1999.90
2019-05-03T03:06:56.029Z,1194.50
2019-05-03T03:12:01.752Z,1281.17
2019-05-03T03:17:06.965Z,1784.63
2019-05-03T03:22:11.463Z,1999.90
2019-05-03T03:27:19.427Z,1194.70
2019-05-03T03:32:30.371Z,1658.80
2019-05-03T03:37:35.225Z,1434.07
2019-05-03T03:42:40.622Z,1092.97
2019-05-03T03:47:46.602Z,1197.00
2019-05-03T03:52:52.164Z,1940.97
2019-05-03T03:57:56.011Z,1720.87
2019-05-03T04:03:00.731Z,1470.83
2019-05-03T04:08:05.624Z,1395.17
2019-05-03T04:13:11.706Z,1999.90
2019-05-03T04:18:41.086Z,1801.73
2019-05-03T04:23:45.848Z,1829.87
2019-05-03T04:28:49.829Z,1999.90
2019-05-03T04:33:56.106Z,1999.90
2019-05-03T04:38:59.381Z,1999.90
2019-05-03T04:44:06.057Z,1999.90
2019-05-03T04:49:08.796Z,1999.90
2019-05-03T04:54:25.254Z,1999.90
2019-05-03T04:59:29.141Z,1999.90
2019-05-03T05:04:35.498Z,1999.90
2019-05-03T05:09:39.028Z,1999.90
2019-05-03T05:14:45.493Z,1999.90
2019-05-03T05:19:58.542Z,1999.90
2019-05-03T05:25:04.497Z,1999.90
2019-05-03T05:30:10.889Z,1999.90
2019-05-03T05:35:14.668Z,1999.90
2019-05-03T05:40:21.803Z,1795.17
2019-05-03T05:45:25.676Z,618.13
2019-05-03T05:50:37.950Z,1999.90
2019-05-03T05:55:54.970Z,1999.90
2019-05-03T06:01:02.633Z,1999.90
2019-05-03T06:06:08.977Z,1483.90
2019-05-03T06:11:18.673Z,1999.90
2019-05-03T06:16:28.267Z,1999.90
2019-05-03T06:21:51.195Z,1999.90
2019-05-03T06:27:00.560Z,1346.70
2019-05-03T06:32:15.366Z,1999.90
2019-05-03T06:37:21.900Z,1559.60
2019-05-03T06:42:25.665Z,1999.90
2019-05-03T06:47:29.758Z,1999.90
2019-05-03T06:52:35.136Z,1999.90
2019-05-03T06:57:45.652Z,1999.90
2019-05-03T07:02:57.899Z,1999.90
2019-05-03T07:08:21.073Z,1999.90
2019-05-03T07:13:25.459Z,1999.90
2019-05-03T07:18:29.258Z,1999.90
2019-05-03T07:23:34.924Z,1999.90
2019-05-03T07:28:46.984Z,1999.90
2019-05-03T07:33:44.639Z,1999.90
2019-05-03T07:38:48.782Z,1999.90
2019-05-03T07:43:52.515Z,1999.90
2019-05-03T07:48:56.333Z,1999.90
2019-05-03T07:54:00.047Z,1999.90
2019-05-03T07:59:06.850Z,1999.90
2019-05-03T08:04:10.637Z,1999.90
2019-05-03T08:09:15.351Z,1999.90
2019-05-03T08:14:19.349Z,1999.90
2019-05-03T08:19:24.464Z,1999.90
2019-05-03T08:24:28.565Z,591.23
2019-05-03T08:29:32.295Z,1476.60
2019-05-03T08:34:58.034Z,1751.70
2019-05-03T08:40:02.010Z,603.33
2019-05-03T08:45:08.016Z,1999.90
2019-05-03T08:50:15.103Z,320.60
2019-05-03T08:55:17.428Z,219.67
2019-05-03T09:00:24.915Z,813.70
2019-05-03T09:05:28.830Z,790.30
2019-05-03T09:10:41.553Z,343.80
2019-05-03T09:15:46.005Z,1999.90
2019-05-03T09:20:50.149Z,154.90
2019-05-03T09:25:54.782Z,145.97
2019-05-03T09:30:58.577Z,1693.50
2019-05-03T09:36:02.796Z,1999.90
2019-05-03T09:41:06.673Z,347.03
2019-05-03T09:46:10.418Z,247.03
2019-05-03T09:51:14.888Z,456.33
2019-05-03T09:56:21.299Z,435.73
2019-05-03T10:01:25.595Z,147.90
2019-05-03T10:06:29.377Z,285.53
2019-05-03T10:11:35.142Z,160.03
2019-05-03T10:16:44.900Z,158.77
2019-05-03T10:21:49.003Z,281.37
2019-05-03T10:26:52.690Z,286.37
2019-05-03T10:32:04.170Z,230.23
2019-05-03T10:37:09.844Z,152.00
2019-05-03T10:42:13.717Z,167.10
2019-05-03T10:47:17.841Z,132.23
2019-05-03T10:52:25.751Z,173.57
2019-05-03T10:57:31.106Z,384.97
2019-05-03T11:03:06.386Z,258.80
2019-05-03T11:08:10.331Z,133.03
2019-05-03T11:13:15.435Z,310.13
2019-05-03T11:18:20.165Z,259.53
2019-05-03T11:23:25.168Z,663.23
2019-05-03T11:28:29.182Z,361.43
2019-05-03T11:33:41.200Z,351.40
2019-05-03T11:38:46.910Z,110.77
2019-05-03T11:43:51.007Z,139.97
2019-05-03T11:48:55.005Z,184.60
2019-05-03T11:53:58.752Z,133.33
2019-05-03T11:59:02.795Z,160.93
2019-05-03T12:04:06.738Z,241.60
2019-05-03T12:09:10.542Z,188.73
2019-05-03T12:14:15.514Z,145.83
2019-05-03T12:19:22.485Z,232.07
2019-05-03T12:24:26.585Z,150.77
2019-05-03T12:29:29.931Z,146.77
2019-05-03T12:34:35.133Z,111.33
2019-05-03T12:39:39.526Z,264.17
2019-05-03T12:44:43.425Z,151.33
2019-05-03T12:49:47.207Z,126.57
2019-05-03T12:54:51.570Z,144.80
2019-05-03T13:00:20.677Z,149.40
2019-05-03T13:05:24.882Z,123.40
2019-05-03T13:10:28.799Z,129.33
2019-05-03T13:15:35.222Z,131.53
2019-05-03T13:20:39.016Z,120.90
2019-05-03T13:25:44.706Z,147.50
2019-05-03T13:30:48.368Z,130.13
2019-05-03T13:35:52.104Z,299.63
2019-05-03T13:40:56.557Z,143.07
2019-05-03T13:46:00.374Z,204.57
2019-05-03T13:51:05.250Z,134.97
2019-05-03T13:56:09.336Z,110.93
2019-05-03T14:01:14.719Z,116.00
2019-05-03T14:06:18.679Z,133.50
2019-05-03T14:11:22.646Z,114.40
2019-05-03T14:16:26.593Z,104.20
2019-05-03T14:21:41.309Z,137.63
2019-05-03T14:26:45.038Z,1508.10
2019-05-03T14:31:48.790Z,917.30
2019-05-03T14:36:52.647Z,1999.90
2019-05-03T14:41:56.546Z,1999.90
2019-05-03T14:47:00.455Z,1999.90
2019-05-03T14:52:05.542Z,1999.90
2019-05-03T14:57:20.266Z,1999.90
2019-05-03T15:02:47.658Z,1188.93
2019-05-03T15:07:47.255Z,1010.60
2019-05-03T15:12:51.002Z,879.27
2019-05-03T15:17:55.103Z,899.17
2019-05-03T15:22:58.974Z,955.70
2019-05-03T15:28:04.809Z,852.47
2019-05-03T15:33:08.446Z,1999.90
2019-05-03T15:38:14.190Z,1564.03
2019-05-03T15:43:28.459Z,633.60
2019-05-03T15:48:35.179Z,667.23
2019-05-03T15:53:39.571Z,1999.90
2019-05-03T15:58:46.663Z,1013.80
2019-05-03T16:03:49.373Z,942.77
2019-05-03T16:08:55.093Z,1195.80
2019-05-03T16:13:58.638Z,728.93
2019-05-03T16:19:02.497Z,1336.13
2019-05-03T16:24:06.455Z,1047.10
2019-05-03T16:29:12.831Z,1302.10
2019-05-03T16:34:16.654Z,1631.30
2019-05-03T16:39:20.506Z,1999.90
2019-05-03T16:44:25.050Z,1999.90
2019-05-03T16:49:29.201Z,1391.80
2019-05-03T16:54:34.917Z,1232.93
2019-05-03T16:59:39.125Z,1127.27
2019-05-03T17:04:48.246Z,1038.53
2019-05-03T17:10:15.650Z,1124.13
2019-05-03T17:15:19.749Z,1082.37
2019-05-03T17:20:34.831Z,1084.40
2019-05-03T17:25:39.395Z,1043.77
2019-05-03T17:30:44.558Z,1019.20
2019-05-03T17:35:48.474Z,935.33
2019-05-03T17:41:15.156Z,952.37
2019-05-03T17:46:19.413Z,937.93
2019-05-03T17:51:45.560Z,971.03
2019-05-03T17:57:07.065Z,801.70
2019-05-03T18:02:26.299Z,910.97
2019-05-03T18:07:49.142Z,1058.70
2019-05-03T18:12:54.555Z,1073.70
2019-05-03T18:17:58.679Z,1068.07
2019-05-03T18:23:02.501Z,935.90
2019-05-03T18:28:06.381Z,902.27
2019-05-03T18:33:10.225Z,942.13
2019-05-03T18:38:14.794Z,923.67
2019-05-03T18:43:34.491Z,819.50
2019-05-03T18:48:38.023Z,826.57
2019-05-03T18:53:42.014Z,845.40
2019-05-03T18:58:46.094Z,858.17
2019-05-03T19:03:55.373Z,949.60
2019-05-03T19:09:19.955Z,1294.90
2019-05-03T19:14:25.457Z,1999.90
2019-05-03T19:19:35.262Z,1665.57
2019-05-03T19:24:39.390Z,974.77
2019-05-03T19:29:44.786Z,974.60
2019-05-03T19:34:51.478Z,876.47
2019-05-03T19:39:55.234Z,1480.30
2019-05-03T19:45:00.201Z,1670.87
2019-05-03T19:50:05.101Z,1644.67
2019-05-03T19:55:09.478Z,1603.33
2019-05-03T20:00:15.109Z,1681.37
2019-05-03T20:05:51.325Z,999.00
2019-05-03T20:11:14.863Z,1668.30
2019-05-03T20:16:19.181Z,1664.83
2019-05-03T20:21:25.255Z,1391.80
2019-05-03T20:26:29.285Z,1734.27
2019-05-03T20:31:33.018Z,754.70
2019-05-03T20:36:37.199Z,1596.60
2019-05-03T20:41:40.994Z,1999.90
2019-05-03T20:46:55.033Z,1607.70
2019-05-03T20:51:59.394Z,1591.20
2019-05-03T20:57:05.277Z,1623.37
2019-05-03T21:02:09.397Z,1585.37
2019-05-03T21:07:15.175Z,1999.90
2019-05-03T21:12:19.021Z,1583.60
2019-05-03T21:18:00.081Z,1600.47
2019-05-03T21:23:05.575Z,1651.23
2019-05-03T21:28:09.778Z,1661.07
2019-05-03T21:33:15.751Z,1999.90
2019-05-03T21:38:20.217Z,1763.17
2019-05-03T21:43:25.693Z,1611.97
2019-05-03T21:48:49.057Z,1608.77
2019-05-03T21:53:52.841Z,1523.60
2019-05-03T21:58:56.523Z,1999.90
2019-05-03T22:04:01.086Z,1999.90
2019-05-03T22:09:06.183Z,1999.90
2019-05-03T22:14:15.426Z,1999.90
2019-05-03T22:19:19.628Z,1999.90
2019-05-03T22:24:42.127Z,1186.63
2019-05-03T22:29:46.251Z,1999.90
2019-05-03T22:34:50.018Z,1999.90
2019-05-03T22:39:55.030Z,1562.50
2019-05-03T22:44:59.114Z,1050.20
2019-05-03T22:50:05.274Z,431.40
2019-05-03T22:55:09.053Z,1999.90
2019-05-03T23:00:14.622Z,1999.90
2019-05-03T23:05:18.783Z,1999.90
2019-05-03T23:10:22.705Z,1512.27
2019-05-03T23:15:26.374Z,1500.13
2019-05-03T23:20:49.165Z,1546.43
2019-05-03T23:25:52.858Z,1999.90
2019-05-03T23:30:56.901Z,1999.90
2019-05-03T23:36:00.674Z,1457.07
2019-05-03T23:41:04.902Z,1999.90
2019-05-03T23:46:09.409Z,1999.90
2019-05-03T23:51:32.609Z,1514.63
2019-05-03T23:56:36.630Z,1999.90
